createdAt,value
2019-03-30T00:01:53.504Z,29.400000
2019-03-30T00:04:23.889Z,39.700000
2019-03-30T00:06:54.339Z,39.700000
2019-03-30T00:09:24.660Z,39.800000
2019-03-30T00:11:57.742Z,39.800000
2019-03-30T00:14:28.492Z,37.700000
2019-03-30T00:16:58.840Z,37.700000
2019-03-30T00:19:35.197Z,30.500000
2019-03-30T00:22:05.684Z,30.500000
2019-03-30T00:24:36.082Z,30.600000
2019-03-30T00:27:06.404Z,30.600000
2019-03-30T00:29:36.718Z,28.900000
2019-03-30T00:32:07.115Z,28.900000
2019-03-30T00:34:37.506Z,23.000000
2019-03-30T00:37:07.871Z,23.000000
2019-03-30T00:39:38.187Z,23.600000
2019-03-30T00:42:08.493Z,23.600000
2019-03-30T00:44:38.797Z,29.900000
2019-03-30T00:47:09.218Z,29.900000
2019-03-30T00:49:48.939Z,28.500000
2019-03-30T00:52:20.496Z,28.500000
2019-03-30T00:54:55.861Z,28.800000
2019-03-30T00:57:26.163Z,28.800000
2019-03-30T01:00:01.498Z,19.900000
2019-03-30T01:02:31.761Z,19.900000
2019-03-30T01:05:02.070Z,28.000000
2019-03-30T01:07:32.369Z,30.000000
2019-03-30T01:10:02.692Z,30.000000
2019-03-30T01:12:33.101Z,25.100000
2019-03-30T01:15:03.522Z,25.100000
2019-03-30T01:17:33.896Z,25.900000
2019-03-30T01:20:04.215Z,25.900000
2019-03-30T01:22:34.634Z,28.300000
2019-03-30T01:25:04.937Z,28.300000
2019-03-30T01:27:35.365Z,25.700000
2019-03-30T01:30:05.774Z,25.700000
2019-03-30T01:32:36.173Z,25.200000
2019-03-30T01:35:06.554Z,25.200000
2019-03-30T01:37:37.040Z,24.300000
2019-03-30T01:40:07.388Z,24.300000
2019-03-30T01:42:37.814Z,25.800000
2019-03-30T01:45:08.225Z,25.800000
2019-03-30T01:47:38.540Z,24.100000
2019-03-30T01:50:17.214Z,24.100000
2019-03-30T01:52:48.458Z,23.600000
2019-03-30T01:55:18.774Z,23.600000
2019-03-30T01:57:49.181Z,30.300000
2019-03-30T02:00:19.464Z,30.300000
2019-03-30T02:02:49.763Z,28.400000
2019-03-30T02:05:20.070Z,28.400000
2019-03-30T02:07:50.274Z,31.900000
2019-03-30T02:10:20.580Z,31.900000
2019-03-30T02:12:50.872Z,25.700000
2019-03-30T02:15:21.185Z,25.700000
2019-03-30T02:17:51.488Z,33.500000
2019-03-30T02:20:30.664Z,33.500000
2019-03-30T02:23:01.767Z,32.200000
2019-03-30T02:25:32.169Z,32.200000
2019-03-30T02:28:02.460Z,33.800000
2019-03-30T02:30:32.676Z,33.800000
2019-03-30T02:33:02.996Z,33.300000
2019-03-30T02:35:33.278Z,33.300000
2019-03-30T02:38:03.700Z,29.900000
2019-03-30T02:40:33.974Z,29.900000
2019-03-30T02:43:04.269Z,25.400000
2019-03-30T02:45:34.576Z,25.400000
2019-03-30T02:48:04.899Z,28.000000
2019-03-30T02:50:48.399Z,28.000000
2019-03-30T02:53:20.091Z,29.700000
2019-03-30T02:55:50.373Z,29.700000
2019-03-30T02:58:20.679Z,24.900000
2019-03-30T03:00:51.075Z,24.900000
2019-03-30T03:03:21.392Z,23.300000
2019-03-30T03:05:51.725Z,23.300000
2019-03-30T03:08:27.104Z,27.800000
2019-03-30T03:10:57.446Z,27.800000
2019-03-30T03:13:32.826Z,31.700000
2019-03-30T03:16:08.151Z,31.700000
2019-03-30T03:18:38.494Z,25.200000
2019-03-30T03:21:09.135Z,25.200000
2019-03-30T03:23:39.661Z,24.200000
2019-03-30T03:26:10.085Z,24.200000
2019-03-30T03:28:40.469Z,26.400000
2019-03-30T03:31:15.917Z,26.400000
2019-03-30T03:33:46.337Z,35.700000
2019-03-30T03:36:16.659Z,35.700000
2019-03-30T03:38:47.044Z,38.400000
2019-03-30T03:41:17.424Z,38.400000
2019-03-30T03:43:47.784Z,35.500000
2019-03-30T03:46:18.172Z,35.500000
2019-03-30T03:48:48.559Z,29.100000
2019-03-30T03:51:26.025Z,29.100000
2019-03-30T03:53:57.003Z,25.900000
2019-03-30T03:56:27.579Z,25.900000
2019-03-30T03:58:57.929Z,25.700000
2019-03-30T04:01:28.428Z,25.700000
2019-03-30T04:03:58.834Z,31.400000
2019-03-30T04:06:29.190Z,31.400000
2019-03-30T04:08:59.661Z,31.400000
2019-03-30T04:11:30.033Z,31.400000
2019-03-30T04:14:00.443Z,34.800000
2019-03-30T04:16:30.800Z,34.800000
2019-03-30T04:19:01.205Z,29.400000
2019-03-30T04:21:43.620Z,29.400000
2019-03-30T04:24:14.999Z,26.400000
2019-03-30T04:26:45.388Z,23.500000
2019-03-30T04:29:15.661Z,23.500000
2019-03-30T04:31:46.144Z,30.900000
2019-03-30T04:34:16.556Z,30.900000
2019-03-30T04:36:46.902Z,32.200000
2019-03-30T04:39:17.210Z,32.200000
2019-03-30T04:41:47.583Z,35.700000
2019-03-30T04:44:17.965Z,35.700000
2019-03-30T04:46:48.353Z,42.300000
2019-03-30T04:49:18.730Z,42.300000
2019-03-30T04:51:57.525Z,41.400000
2019-03-30T04:54:28.470Z,41.400000
2019-03-30T04:56:58.834Z,48.800000
2019-03-30T04:59:29.119Z,48.800000
2019-03-30T05:01:59.415Z,46.100000
2019-03-30T05:04:29.690Z,46.100000
2019-03-30T05:07:00.297Z,46.100000
2019-03-30T05:09:30.574Z,46.100000
2019-03-30T05:12:00.951Z,45.900000
2019-03-30T05:14:31.398Z,45.900000
2019-03-30T05:17:01.737Z,42.900000
2019-03-30T05:19:32.124Z,42.900000
2019-03-30T05:22:12.739Z,49.200000
2019-03-30T05:24:45.392Z,49.200000
2019-03-30T05:27:15.755Z,46.800000
2019-03-30T05:29:46.137Z,46.800000
2019-03-30T05:32:16.424Z,42.800000
2019-03-30T05:34:46.772Z,42.800000
2019-03-30T05:37:17.182Z,44.900000
2019-03-30T05:39:47.381Z,44.900000
2019-03-30T05:42:17.813Z,33.500000
2019-03-30T05:44:48.146Z,33.500000
2019-03-30T05:47:18.425Z,36.700000
2019-03-30T05:49:48.717Z,36.700000
2019-03-30T05:52:26.356Z,31.700000
2019-03-30T05:54:57.243Z,31.700000
2019-03-30T05:57:27.699Z,45.100000
2019-03-30T05:59:57.996Z,45.100000
2019-03-30T06:02:28.273Z,40.500000
2019-03-30T06:04:58.880Z,40.500000
2019-03-30T06:07:29.323Z,33.800000
2019-03-30T06:09:59.605Z,33.800000
2019-03-30T06:12:30.006Z,35.500000
2019-03-30T06:15:00.574Z,35.500000
2019-03-30T06:17:30.885Z,44.300000
2019-03-30T06:20:01.195Z,44.300000
2019-03-30T06:22:40.281Z,42.100000
2019-03-30T06:25:11.319Z,42.100000
2019-03-30T06:27:41.630Z,34.700000
2019-03-30T06:30:11.907Z,34.700000
2019-03-30T06:32:42.232Z,31.100000
2019-03-30T06:35:12.535Z,31.100000
2019-03-30T06:37:42.839Z,39.200000
2019-03-30T06:40:13.144Z,39.200000
2019-03-30T06:42:43.457Z,38.100000
2019-03-30T06:45:13.760Z,38.100000
2019-03-30T06:47:44.081Z,49.100000
2019-03-30T06:50:14.381Z,49.100000
2019-03-30T06:52:56.766Z,47.700000
2019-03-30T06:55:28.805Z,47.700000
2019-03-30T06:57:59.121Z,37.900000
2019-03-30T07:00:29.429Z,37.900000
2019-03-30T07:02:59.771Z,44.000000
2019-03-30T07:05:30.119Z,44.000000
2019-03-30T07:08:00.465Z,42.800000
2019-03-30T07:10:30.798Z,42.800000
2019-03-30T07:13:01.136Z,44.800000
2019-03-30T07:15:31.460Z,44.800000
2019-03-30T07:18:01.801Z,43.600000
2019-03-30T07:20:32.232Z,43.600000
2019-03-30T07:23:11.612Z,41.300000
2019-03-30T07:25:42.529Z,41.300000
2019-03-30T07:28:12.841Z,39.700000
2019-03-30T07:30:43.202Z,39.700000
2019-03-30T07:33:13.581Z,37.900000
2019-03-30T07:35:43.993Z,42.300000
2019-03-30T07:38:14.379Z,42.300000
2019-03-30T07:40:44.759Z,38.700000
2019-03-30T07:43:15.129Z,38.700000
2019-03-30T07:45:45.417Z,31.400000
2019-03-30T07:48:15.749Z,31.400000
2019-03-30T07:50:46.096Z,35.000000
2019-03-30T07:53:26.386Z,35.000000
2019-03-30T07:56:07.644Z,30.500000
2019-03-30T07:58:38.945Z,30.500000
2019-03-30T08:01:09.494Z,33.900000
2019-03-30T08:03:39.995Z,33.900000
2019-03-30T08:06:10.303Z,26.200000
2019-03-30T08:08:40.640Z,26.200000
2019-03-30T08:11:14.194Z,24.600000
2019-03-30T08:13:44.823Z,24.600000
2019-03-30T08:16:15.296Z,27.800000
2019-03-30T08:18:45.631Z,27.800000
2019-03-30T08:21:16.023Z,24.800000
2019-03-30T08:23:46.364Z,24.800000
2019-03-30T08:26:16.717Z,25.800000
2019-03-30T08:28:46.970Z,25.800000
2019-03-30T08:31:17.232Z,18.600000
2019-03-30T08:33:47.628Z,18.600000
2019-03-30T08:36:18.006Z,20.200000
2019-03-30T08:38:48.399Z,20.200000
2019-03-30T08:41:18.776Z,17.900000
2019-03-30T08:43:49.099Z,17.900000
2019-03-30T08:46:19.448Z,20.800000
2019-03-30T08:48:49.884Z,20.800000
2019-03-30T08:51:20.900Z,19.000000
2019-03-30T08:53:54.720Z,19.000000
2019-03-30T08:56:28.036Z,23.500000
2019-03-30T08:58:58.507Z,23.500000
2019-03-30T09:01:28.839Z,15.600000
2019-03-30T09:03:59.176Z,15.600000
2019-03-30T09:06:29.848Z,26.900000
2019-03-30T09:09:00.181Z,26.900000
2019-03-30T09:11:30.528Z,24.700000
2019-03-30T09:14:00.989Z,24.700000
2019-03-30T09:16:31.543Z,24.400000
2019-03-30T09:19:01.915Z,24.400000
2019-03-30T09:21:32.363Z,23.800000
2019-03-30T09:24:09.411Z,23.800000
2019-03-30T09:26:40.792Z,24.100000
2019-03-30T09:29:11.158Z,24.100000
2019-03-30T09:31:41.464Z,22.400000
2019-03-30T09:34:11.917Z,22.400000
2019-03-30T09:36:42.316Z,21.500000
2019-03-30T09:39:12.736Z,21.500000
2019-03-30T09:41:43.020Z,20.800000
2019-03-30T09:44:13.358Z,20.800000
2019-03-30T09:46:43.727Z,18.000000
2019-03-30T09:49:14.066Z,18.000000
2019-03-30T09:51:44.364Z,19.600000
2019-03-30T09:54:23.556Z,19.600000
2019-03-30T09:56:54.477Z,16.500000
2019-03-30T09:59:24.968Z,16.500000
2019-03-30T10:01:55.285Z,18.200000
2019-03-30T10:04:25.836Z,18.200000
2019-03-30T10:06:56.138Z,18.600000
2019-03-30T10:09:26.477Z,18.600000
2019-03-30T10:11:56.812Z,19.000000
2019-03-30T10:14:27.270Z,19.000000
2019-03-30T10:16:57.821Z,18.700000
2019-03-30T10:19:28.169Z,18.700000
2019-03-30T10:21:58.541Z,18.200000
2019-03-30T10:24:38.035Z,18.200000
2019-03-30T10:27:08.872Z,16.200000
2019-03-30T10:29:39.150Z,16.200000
2019-03-30T10:32:09.541Z,17.100000
2019-03-30T10:34:39.915Z,17.100000
2019-03-30T10:37:10.327Z,16.500000
2019-03-30T10:39:40.635Z,16.500000
2019-03-30T10:42:10.847Z,15.200000
2019-03-30T10:44:41.161Z,15.200000
2019-03-30T10:47:11.593Z,17.600000
2019-03-30T10:49:41.914Z,17.600000
2019-03-30T10:52:12.324Z,16.400000
2019-03-30T10:54:52.510Z,16.400000
2019-03-30T10:57:23.604Z,16.500000
2019-03-30T10:59:53.914Z,16.500000
2019-03-30T11:02:24.261Z,16.300000
2019-03-30T11:04:54.591Z,16.300000
2019-03-30T11:07:25.044Z,11.800000
2019-03-30T11:09:55.401Z,11.800000
2019-03-30T11:12:25.759Z,10.900000
2019-03-30T11:14:56.134Z,10.900000
2019-03-30T11:17:26.547Z,10.400000
2019-03-30T11:19:56.891Z,10.400000
2019-03-30T11:22:32.286Z,14.400000
2019-03-30T11:25:07.756Z,14.400000
2019-03-30T11:27:39.146Z,12.100000
2019-03-30T11:30:09.455Z,12.100000
2019-03-30T11:32:39.745Z,13.000000
2019-03-30T11:35:10.104Z,13.000000
2019-03-30T11:37:40.472Z,12.500000
2019-03-30T11:40:10.752Z,12.500000
2019-03-30T11:42:41.043Z,12.000000
2019-03-30T11:45:11.327Z,13.200000
2019-03-30T11:47:41.792Z,13.200000
2019-03-30T11:50:12.139Z,18.000000
2019-03-30T11:52:42.398Z,18.000000
2019-03-30T11:55:21.633Z,13.200000
2019-03-30T11:57:52.760Z,13.200000
2019-03-30T12:00:22.999Z,25.800000
2019-03-30T12:02:53.234Z,25.800000
2019-03-30T12:05:23.571Z,35.100000
2019-03-30T12:07:53.862Z,35.100000
2019-03-30T12:10:24.348Z,44.800000
2019-03-30T12:12:54.707Z,44.800000
2019-03-30T12:15:25.075Z,43.400000
2019-03-30T12:17:55.546Z,43.400000
2019-03-30T12:20:25.876Z,42.800000
2019-03-30T12:22:56.155Z,42.800000
2019-03-30T12:25:35.534Z,33.600000
2019-03-30T12:28:06.727Z,33.600000
2019-03-30T12:30:37.115Z,36.000000
2019-03-30T12:33:07.470Z,36.000000
2019-03-30T12:35:37.900Z,33.900000
2019-03-30T12:38:08.223Z,33.900000
2019-03-30T12:40:38.599Z,35.700000
2019-03-30T12:43:08.987Z,35.700000
2019-03-30T12:45:39.282Z,39.400000
2019-03-30T12:48:09.621Z,39.400000
2019-03-30T12:50:40.269Z,42.100000
2019-03-30T12:53:10.786Z,42.100000
2019-03-30T12:55:49.238Z,43.600000
2019-03-30T12:58:20.191Z,43.600000
2019-03-30T13:00:50.542Z,53.800000
2019-03-30T13:03:21.076Z,53.800000
2019-03-30T13:05:51.488Z,60.400000
2019-03-30T13:08:21.897Z,60.400000
2019-03-30T13:10:52.280Z,56.100000
2019-03-30T13:13:22.580Z,56.100000
2019-03-30T13:15:52.922Z,57.800000
2019-03-30T13:18:23.262Z,57.800000
2019-03-30T13:20:53.847Z,74.300000
2019-03-30T13:23:24.237Z,74.300000
2019-03-30T13:26:03.528Z,72.500000
2019-03-30T13:28:34.440Z,72.500000
2019-03-30T13:31:04.912Z,75.200000
2019-03-30T13:33:35.328Z,75.200000
2019-03-30T13:36:05.800Z,60.900000
2019-03-30T13:38:41.232Z,60.900000
2019-03-30T13:41:14.077Z,77.100000
2019-03-30T13:43:44.954Z,77.100000
2019-03-30T13:46:15.322Z,55.200000
2019-03-30T13:48:45.623Z,55.200000
2019-03-30T13:51:16.151Z,68.900000
2019-03-30T13:53:46.570Z,68.900000
2019-03-30T13:56:17.685Z,52.300000
2019-03-30T13:58:48.150Z,52.300000
2019-03-30T14:01:18.540Z,60.100000
2019-03-30T14:03:49.031Z,60.100000
2019-03-30T14:06:19.422Z,57.200000
2019-03-30T14:08:49.926Z,57.200000
2019-03-30T14:11:20.387Z,85.700000
2019-03-30T14:13:50.750Z,85.700000
2019-03-30T14:16:21.137Z,66.900000
2019-03-30T14:18:51.451Z,66.900000
2019-03-30T14:21:21.761Z,77.100000
2019-03-30T14:23:52.134Z,77.100000
2019-03-30T14:26:31.236Z,78.300000
2019-03-30T14:29:02.202Z,78.300000
2019-03-30T14:31:32.625Z,59.200000
2019-03-30T14:34:03.140Z,59.200000
2019-03-30T14:36:33.635Z,69.400000
2019-03-30T14:39:04.015Z,69.400000
2019-03-30T14:41:34.381Z,65.300000
2019-03-30T14:44:04.655Z,65.300000
2019-03-30T14:46:34.969Z,51.000000
2019-03-30T14:49:05.363Z,51.000000
2019-03-30T14:51:35.744Z,61.300000
2019-03-30T14:54:06.052Z,61.300000
2019-03-30T14:56:45.336Z,55.700000
2019-03-30T14:59:16.520Z,55.700000
2019-03-30T15:01:46.909Z,52.900000
2019-03-30T15:04:17.503Z,52.900000
2019-03-30T15:06:47.899Z,55.200000
2019-03-30T15:09:23.261Z,55.200000
2019-03-30T15:11:58.651Z,57.400000
2019-03-30T15:14:28.951Z,57.400000
2019-03-30T15:16:59.264Z,49.900000
2019-03-30T15:19:29.695Z,49.900000
2019-03-30T15:22:00.071Z,50.200000
2019-03-30T15:24:30.386Z,50.200000
2019-03-30T15:27:00.770Z,54.500000
2019-03-30T15:29:36.217Z,54.500000
2019-03-30T15:32:06.488Z,52.700000
2019-03-30T15:34:36.856Z,52.700000
2019-03-30T15:37:07.257Z,43.200000
2019-03-30T15:39:37.696Z,45.500000
2019-03-30T15:42:08.042Z,45.500000
2019-03-30T15:44:38.259Z,38.200000
2019-03-30T15:47:08.822Z,38.200000
2019-03-30T15:49:39.260Z,38.400000
2019-03-30T15:52:14.101Z,38.400000
2019-03-30T15:54:44.827Z,32.600000
2019-03-30T15:57:15.210Z,32.600000
2019-03-30T15:59:45.599Z,32.600000
2019-03-30T16:02:15.981Z,32.600000
2019-03-30T16:04:46.350Z,37.500000
2019-03-30T16:07:16.752Z,37.500000
2019-03-30T16:09:47.154Z,33.000000
2019-03-30T16:12:17.648Z,33.000000
2019-03-30T16:14:47.986Z,40.900000
2019-03-30T16:17:18.379Z,40.900000
2019-03-30T16:19:48.846Z,37.700000
2019-03-30T16:22:19.094Z,37.700000
2019-03-30T16:24:49.605Z,34.000000
2019-03-30T16:27:28.851Z,34.000000
2019-03-30T16:29:59.800Z,32.200000
2019-03-30T16:32:30.112Z,32.200000
2019-03-30T16:35:00.441Z,33.700000
2019-03-30T16:37:30.838Z,33.700000
2019-03-30T16:40:01.405Z,47.400000
2019-03-30T16:42:31.854Z,47.400000
2019-03-30T16:45:03.176Z,43.200000
2019-03-30T16:47:33.526Z,43.200000
2019-03-30T16:50:03.828Z,44.100000
2019-03-30T16:52:34.103Z,44.100000
2019-03-30T16:55:04.427Z,44.000000
2019-03-30T16:57:43.005Z,44.000000
2019-03-30T17:00:14.321Z,38.500000
2019-03-30T17:02:44.801Z,38.500000
2019-03-30T17:05:15.308Z,42.900000
2019-03-30T17:07:46.080Z,42.900000
2019-03-30T17:10:16.545Z,43.800000
2019-03-30T17:12:46.895Z,43.800000
2019-03-30T17:15:17.320Z,46.600000
2019-03-30T17:17:47.677Z,46.600000
2019-03-30T17:20:18.083Z,47.400000
2019-03-30T17:22:53.488Z,47.400000
2019-03-30T17:25:23.970Z,39.400000
2019-03-30T17:27:58.579Z,39.400000
2019-03-30T17:30:29.514Z,35.200000
2019-03-30T17:32:59.986Z,35.200000
2019-03-30T17:35:30.463Z,36.100000
2019-03-30T17:38:00.828Z,36.100000
2019-03-30T17:40:31.272Z,33.800000
2019-03-30T17:43:01.626Z,33.800000
2019-03-30T17:45:31.965Z,33.600000
2019-03-30T17:48:02.322Z,33.600000
2019-03-30T17:50:32.643Z,36.200000
2019-03-30T17:53:03.166Z,36.200000
2019-03-30T17:55:34.325Z,34.600000
2019-03-30T17:58:12.910Z,34.600000
2019-03-30T18:00:44.002Z,39.400000
2019-03-30T18:03:14.364Z,39.400000
2019-03-30T18:05:44.842Z,37.900000
2019-03-30T18:08:15.184Z,37.900000
2019-03-30T18:10:45.596Z,40.700000
2019-03-30T18:13:15.982Z,40.700000
2019-03-30T18:15:46.461Z,41.800000
2019-03-30T18:18:16.877Z,41.800000
2019-03-30T18:20:47.419Z,41.000000
2019-03-30T18:23:22.855Z,41.000000
2019-03-30T18:25:53.190Z,40.200000
2019-03-30T18:28:27.377Z,40.200000
2019-03-30T18:30:58.211Z,46.000000
2019-03-30T18:33:28.859Z,46.000000
2019-03-30T18:35:59.260Z,42.900000
2019-03-30T18:38:29.640Z,42.900000
2019-03-30T18:41:00.109Z,43.700000
2019-03-30T18:43:30.412Z,43.700000
2019-03-30T18:46:01.004Z,46.000000
2019-03-30T18:48:31.374Z,46.000000
2019-03-30T18:51:01.686Z,46.200000
2019-03-30T18:53:32.010Z,46.200000
2019-03-30T18:56:07.441Z,48.500000
2019-03-30T18:58:41.815Z,48.500000
2019-03-30T19:01:12.565Z,44.100000
2019-03-30T19:03:43.157Z,44.100000
2019-03-30T19:06:13.461Z,44.600000
2019-03-30T19:08:48.943Z,44.600000
2019-03-30T19:11:19.302Z,42.400000
2019-03-30T19:13:51.547Z,42.400000
2019-03-30T19:16:21.943Z,38.800000
2019-03-30T19:18:52.261Z,42.100000
2019-03-30T19:21:22.593Z,42.100000
2019-03-30T19:23:53.056Z,43.100000
2019-03-30T19:26:23.308Z,43.100000
2019-03-30T19:28:56.425Z,43.200000
2019-03-30T19:31:27.248Z,43.200000
2019-03-30T19:33:57.562Z,40.200000
2019-03-30T19:36:27.962Z,40.200000
2019-03-30T19:38:58.364Z,46.700000
2019-03-30T19:41:28.662Z,46.700000
2019-03-30T19:43:59.077Z,46.500000
2019-03-30T19:46:29.394Z,46.500000
2019-03-30T19:48:59.792Z,47.200000
2019-03-30T19:51:35.102Z,47.200000
2019-03-30T19:54:05.502Z,51.400000
2019-03-30T19:56:35.880Z,51.400000
2019-03-30T19:59:11.019Z,56.700000
2019-03-30T20:01:41.857Z,56.700000
2019-03-30T20:04:12.170Z,48.200000
2019-03-30T20:06:42.494Z,48.200000
2019-03-30T20:09:12.863Z,47.300000
2019-03-30T20:11:43.163Z,47.300000
2019-03-30T20:14:13.522Z,53.500000
2019-03-30T20:16:43.960Z,53.500000
2019-03-30T20:19:14.379Z,50.200000
2019-03-30T20:21:44.672Z,50.200000
2019-03-30T20:24:15.053Z,49.600000
2019-03-30T20:26:45.417Z,49.600000
2019-03-30T20:29:25.115Z,55.000000
2019-03-30T20:31:56.161Z,55.000000
2019-03-30T20:34:26.465Z,50.700000
2019-03-30T20:36:56.922Z,50.700000
2019-03-30T20:39:27.276Z,52.700000
2019-03-30T20:41:57.667Z,52.700000
2019-03-30T20:44:28.040Z,56.600000
2019-03-30T20:46:58.347Z,56.600000
2019-03-30T20:49:28.653Z,54.400000
2019-03-30T20:51:59.095Z,54.400000
2019-03-30T20:54:29.387Z,55.900000
2019-03-30T20:56:59.758Z,55.900000
2019-03-30T20:59:39.807Z,53.300000
2019-03-30T21:02:11.006Z,53.300000
2019-03-30T21:04:46.347Z,55.300000
2019-03-30T21:07:21.689Z,55.300000
2019-03-30T21:09:52.041Z,56.300000
2019-03-30T21:12:22.328Z,56.300000
2019-03-30T21:14:52.725Z,66.300000
2019-03-30T21:17:23.215Z,66.300000
2019-03-30T21:19:53.693Z,60.200000
2019-03-30T21:22:24.084Z,60.200000
2019-03-30T21:24:54.461Z,61.100000
2019-03-30T21:27:24.750Z,61.100000
2019-03-30T21:29:55.368Z,61.600000
2019-03-30T21:32:25.926Z,61.600000
2019-03-30T21:34:56.387Z,59.800000
2019-03-30T21:37:26.857Z,59.800000
2019-03-30T21:39:57.154Z,57.000000
2019-03-30T21:42:27.433Z,57.000000
2019-03-30T21:44:57.715Z,61.400000
2019-03-30T21:47:28.086Z,61.400000
2019-03-30T21:49:58.461Z,60.400000
2019-03-30T21:52:28.827Z,60.400000
2019-03-30T21:54:59.190Z,58.600000
2019-03-30T21:57:29.476Z,58.600000
2019-03-30T22:00:10.007Z,62.700000
2019-03-30T22:02:41.379Z,62.700000
2019-03-30T22:05:11.855Z,60.500000
2019-03-30T22:07:42.217Z,60.500000
2019-03-30T22:10:12.702Z,60.200000
2019-03-30T22:12:43.056Z,60.200000
2019-03-30T22:15:13.419Z,56.600000
2019-03-30T22:17:43.810Z,56.600000
2019-03-30T22:20:14.362Z,55.300000
2019-03-30T22:22:44.614Z,55.300000
2019-03-30T22:25:15.164Z,51.500000
2019-03-30T22:27:45.407Z,51.500000
2019-03-30T22:30:24.718Z,50.700000
2019-03-30T22:32:55.726Z,50.700000
2019-03-30T22:35:26.040Z,48.600000
2019-03-30T22:37:56.404Z,48.600000
2019-03-30T22:40:26.670Z,50.500000
2019-03-30T22:42:57.018Z,50.500000
2019-03-30T22:45:27.409Z,46.500000
2019-03-30T22:47:57.842Z,46.500000
2019-03-30T22:50:28.386Z,48.300000
2019-03-30T22:52:58.738Z,46.600000
2019-03-30T22:55:28.984Z,46.600000
2019-03-30T22:57:59.364Z,45.000000
2019-03-30T23:00:38.599Z,45.000000
2019-03-30T23:03:09.726Z,42.600000
2019-03-30T23:05:40.177Z,42.600000
2019-03-30T23:08:10.438Z,44.300000
2019-03-30T23:10:40.780Z,44.300000
2019-03-30T23:13:11.044Z,43.400000
2019-03-30T23:15:41.476Z,43.400000
2019-03-30T23:18:11.849Z,41.300000
2019-03-30T23:20:47.216Z,41.300000
2019-03-30T23:23:17.537Z,34.900000
2019-03-30T23:25:47.840Z,34.900000
2019-03-30T23:28:18.197Z,34.600000
2019-03-30T23:30:54.594Z,34.600000
2019-03-30T23:33:25.175Z,34.400000
2019-03-30T23:35:55.391Z,34.400000
2019-03-30T23:38:25.751Z,36.200000
2019-03-30T23:40:56.082Z,36.200000
2019-03-30T23:43:26.645Z,35.400000
2019-03-30T23:45:56.959Z,35.400000
2019-03-30T23:48:27.430Z,37.000000
2019-03-30T23:50:57.723Z,37.000000
2019-03-30T23:53:27.944Z,36.300000
2019-03-30T23:55:58.341Z,36.300000
2019-03-30T23:58:28.799Z,38.800000
